createdAt,value
2022-08-18T00:00:33.114Z,61.93
2022-08-18T00:01:28.748Z,62.39
2022-08-18T00:02:28.891Z,62.77
2022-08-18T00:03:53.243Z,63.24
2022-08-18T00:04:24.262Z,63.39
2022-08-18T00:05:11.364Z,63.44
2022-08-18T00:06:05.643Z,63.73
2022-08-18T00:07:00.821Z,64.07
2022-08-18T00:07:57.198Z,63.97
2022-08-18T00:08:53.132Z,64.17
2022-08-18T00:09:48.352Z,64.17
2022-08-18T00:10:43.698Z,64.42
2022-08-18T00:11:40.432Z,64.56
2022-08-18T00:12:34.689Z,64.51
2022-08-18T00:13:29.973Z,64.82
2022-08-18T00:14:25.866Z,64.82
2022-08-18T00:15:20.994Z,64.71
2022-08-18T00:16:16.437Z,64.61
2022-08-18T00:17:12.174Z,64.22
2022-08-18T00:18:07.474Z,63.68
2022-08-18T00:19:07.083Z,63.34
2022-08-18T00:20:00.138Z,62.81
2022-08-18T00:20:54.240Z,63.05
2022-08-18T00:21:50.081Z,63.34
2022-08-18T00:22:45.378Z,63.82
2022-08-18T00:23:40.599Z,64.22
2022-08-18T00:24:35.776Z,64.42
2022-08-18T00:25:31.558Z,64.32
2022-08-18T00:26:26.706Z,63.92
2022-08-18T00:27:23.534Z,64.07
2022-08-18T00:28:17.815Z,63.92
2022-08-18T00:29:12.986Z,63.97
2022-08-18T00:30:08.150Z,64.22
2022-08-18T00:31:04.660Z,64.07
2022-08-18T00:31:59.984Z,64.07
2022-08-18T00:32:55.905Z,64.36
2022-08-18T00:33:51.035Z,64.61
2022-08-18T00:34:46.226Z,65.22
2022-08-18T00:35:42.093Z,65.27
2022-08-18T00:36:37.307Z,65.68
2022-08-18T00:37:33.034Z,65.32
2022-08-18T00:38:28.184Z,64.61
2022-08-18T00:39:23.514Z,64.02
2022-08-18T00:40:18.732Z,63.48
2022-08-18T00:41:13.892Z,63.44
2022-08-18T00:42:08.904Z,63.05
2022-08-18T00:43:03.942Z,62.67
2022-08-18T00:43:59.002Z,62.25
2022-08-18T00:44:58.364Z,62.11
2022-08-18T00:45:53.656Z,62.30
2022-08-18T00:46:48.988Z,62.49
2022-08-18T00:47:44.269Z,62.72
2022-08-18T00:48:40.401Z,62.63
2022-08-18T00:49:36.578Z,63.34
2022-08-18T00:50:30.841Z,63.73
2022-08-18T00:51:29.923Z,63.68
2022-08-18T00:52:25.073Z,64.02
2022-08-18T00:53:20.307Z,64.51
2022-08-18T00:54:15.443Z,65.12
2022-08-18T00:55:10.755Z,65.58
2022-08-18T00:56:05.939Z,65.84
2022-08-18T00:57:02.068Z,65.84
2022-08-18T00:57:57.382Z,65.73
2022-08-18T00:58:52.604Z,65.58
2022-08-18T00:59:47.741Z,65.58
2022-08-18T01:00:42.792Z,64.61
2022-08-18T01:01:37.837Z,64.17
2022-08-18T01:02:32.877Z,64.42
2022-08-18T01:03:28.064Z,64.71
2022-08-18T01:04:23.118Z,65.73
2022-08-18T01:05:18.151Z,66.36
2022-08-18T01:06:13.200Z,66.89
2022-08-18T01:07:08.211Z,66.84
2022-08-18T01:08:03.244Z,66.05
2022-08-18T01:08:58.293Z,65.73
2022-08-18T01:09:53.304Z,65.48
2022-08-18T01:10:48.371Z,65.48
2022-08-18T01:11:43.375Z,65.27
2022-08-18T01:12:45.377Z,65.53
2022-08-18T01:13:34.504Z,65.27
2022-08-18T01:14:29.387Z,65.12
2022-08-18T01:15:29.235Z,65.58
2022-08-18T01:16:20.737Z,65.73
2022-08-18T01:17:14.978Z,65.84
2022-08-18T01:18:10.153Z,65.43
2022-08-18T01:19:05.293Z,65.22
2022-08-18T01:20:00.485Z,64.82
2022-08-18T01:20:55.653Z,64.51
2022-08-18T01:21:51.065Z,64.32
2022-08-18T01:22:46.099Z,64.22
2022-08-18T01:23:44.924Z,63.53
2022-08-18T01:24:40.060Z,62.77
2022-08-18T01:25:35.213Z,62.77
2022-08-18T01:26:30.482Z,62.67
2022-08-18T01:27:25.679Z,62.72
2022-08-18T01:28:20.878Z,62.58
2022-08-18T01:29:19.052Z,62.44
2022-08-18T01:30:11.029Z,62.16
2022-08-18T01:31:06.100Z,62.16
2022-08-18T01:32:04.410Z,62.72
2022-08-18T01:32:59.722Z,63.19
2022-08-18T01:33:55.003Z,63.15
2022-08-18T01:34:50.739Z,63.34
2022-08-18T01:35:45.935Z,63.68
2022-08-18T01:36:41.078Z,64.02
2022-08-18T01:37:37.515Z,63.78
2022-08-18T01:38:32.725Z,63.73
2022-08-18T01:41:11.134Z,64.22
2022-08-18T01:41:22.377Z,63.92
2022-08-18T01:41:28.363Z,64.46
2022-08-18T01:42:16.687Z,65.02
2022-08-18T01:43:11.488Z,65.27
2022-08-18T01:44:06.648Z,65.43
2022-08-18T01:45:02.229Z,65.48
2022-08-18T01:45:57.788Z,65.68
2022-08-18T01:46:53.103Z,65.89
2022-08-18T01:47:48.891Z,65.53
2022-08-18T01:48:44.148Z,65.58
2022-08-18T01:49:39.323Z,65.89
2022-08-18T01:50:35.094Z,66.15
2022-08-18T01:51:39.514Z,66.79
2022-08-18T01:52:26.466Z,67.60
2022-08-18T01:53:20.687Z,67.54
2022-08-18T01:54:16.684Z,67.22
2022-08-18T01:55:11.748Z,67.22
2022-08-18T01:56:07.086Z,67.11
2022-08-18T01:57:02.153Z,66.20
2022-08-18T01:57:57.190Z,65.84
2022-08-18T01:58:52.261Z,65.89
2022-08-18T01:59:47.362Z,65.73
2022-08-18T02:00:42.441Z,65.94
2022-08-18T02:01:37.499Z,66.26
2022-08-18T02:02:33.541Z,66.79
2022-08-18T02:03:27.661Z,67.27
2022-08-18T02:04:37.982Z,67.43
2022-08-18T02:05:18.698Z,67.38
2022-08-18T02:06:14.636Z,67.32
2022-08-18T02:07:07.855Z,67.11
2022-08-18T02:08:02.930Z,67.38
2022-08-18T02:08:58.137Z,67.65
2022-08-18T02:09:53.143Z,67.49
2022-08-18T02:10:52.355Z,67.54
2022-08-18T02:11:47.365Z,67.82
2022-08-18T02:12:42.466Z,67.93
2022-08-18T02:13:37.514Z,68.49
2022-08-18T02:14:32.597Z,68.88
2022-08-18T02:15:27.588Z,69.34
2022-08-18T02:16:22.669Z,69.34
2022-08-18T02:17:17.707Z,69.00
2022-08-18T02:18:12.761Z,69.34
2022-08-18T02:19:07.812Z,69.80
2022-08-18T02:20:03.024Z,69.69
2022-08-18T02:20:58.074Z,69.98
2022-08-18T02:21:53.130Z,70.75
2022-08-18T02:22:48.164Z,71.05
2022-08-18T02:23:52.135Z,71.66
2022-08-18T02:24:40.172Z,71.85
2022-08-18T02:25:34.393Z,72.10
2022-08-18T02:26:30.261Z,72.10
2022-08-18T02:27:25.292Z,72.98
2022-08-18T02:28:20.751Z,72.79
2022-08-18T02:29:16.505Z,72.91
2022-08-18T02:30:11.643Z,72.28
2022-08-18T02:31:07.235Z,72.35
2022-08-18T02:32:02.509Z,72.53
2022-08-18T02:32:57.681Z,72.60
2022-08-18T02:33:53.562Z,72.60
2022-08-18T02:34:48.851Z,72.91
2022-08-18T02:35:44.841Z,73.75
2022-08-18T02:36:40.011Z,74.21
2022-08-18T02:37:35.319Z,74.94
2022-08-18T02:38:31.042Z,75.97
2022-08-18T02:39:26.484Z,76.88
2022-08-18T02:40:21.824Z,77.16
2022-08-18T02:41:17.919Z,76.81
2022-08-18T02:42:13.089Z,75.90
2022-08-18T02:43:08.945Z,75.69
2022-08-18T02:44:04.235Z,74.88
2022-08-18T02:44:59.539Z,74.74
2022-08-18T02:45:55.162Z,74.34
2022-08-18T02:46:50.451Z,74.28
2022-08-18T02:47:45.664Z,74.08
2022-08-18T02:48:40.807Z,73.82
2022-08-18T02:49:35.987Z,73.04
2022-08-18T02:50:31.037Z,72.53
2022-08-18T02:51:26.201Z,72.53
2022-08-18T02:52:21.199Z,72.66
2022-08-18T02:53:16.265Z,72.98
2022-08-18T02:54:11.305Z,72.79
2022-08-18T02:55:06.385Z,72.98
2022-08-18T02:56:01.441Z,72.60
2022-08-18T02:56:56.474Z,71.91
2022-08-18T02:57:51.615Z,72.41
2022-08-18T02:58:46.586Z,72.72
2022-08-18T02:59:41.624Z,72.79
2022-08-18T03:00:36.690Z,73.82
2022-08-18T03:01:31.891Z,74.08
2022-08-18T03:02:26.957Z,74.15
2022-08-18T03:03:21.964Z,74.74
2022-08-18T03:04:17.024Z,74.88
2022-08-18T03:05:15.476Z,74.28
2022-08-18T03:06:10.624Z,74.34
2022-08-18T03:07:05.964Z,74.41
2022-08-18T03:08:01.127Z,74.81
2022-08-18T03:08:57.368Z,74.21
2022-08-18T03:09:52.670Z,74.68
2022-08-18T03:10:47.837Z,74.94
2022-08-18T03:11:43.582Z,74.88
2022-08-18T03:12:38.194Z,74.34
2022-08-18T03:13:33.369Z,74.08
2022-08-18T03:14:28.667Z,74.74
2022-08-18T03:15:23.959Z,74.94
2022-08-18T03:16:19.028Z,75.15
2022-08-18T03:17:14.379Z,75.90
2022-08-18T03:18:09.579Z,77.02
2022-08-18T03:19:04.859Z,78.54
2022-08-18T03:20:00.177Z,79.21
2022-08-18T03:20:55.379Z,79.67
2022-08-18T03:21:51.234Z,80.13
2022-08-18T03:22:46.307Z,80.98
2022-08-18T03:23:41.550Z,82.42
2022-08-18T03:24:36.936Z,83.66
2022-08-18T03:25:32.117Z,84.68
2022-08-18T03:26:27.586Z,85.20
2022-08-18T03:27:22.765Z,85.81
2022-08-18T03:28:18.087Z,86.17
2022-08-18T03:29:13.380Z,85.03
2022-08-18T03:30:11.528Z,83.49
2022-08-18T03:31:03.792Z,81.62
2022-08-18T03:31:59.088Z,81.06
2022-08-18T03:32:54.284Z,81.70
2022-08-18T03:33:49.445Z,83.00
2022-08-18T03:34:44.654Z,83.41
2022-08-18T03:35:39.805Z,84.00
2022-08-18T03:36:35.101Z,83.49
2022-08-18T03:37:30.283Z,82.91
2022-08-18T03:38:25.607Z,83.16
2022-08-18T03:39:20.842Z,82.91
2022-08-18T03:40:16.063Z,83.00
2022-08-18T03:41:11.268Z,83.33
2022-08-18T03:42:06.432Z,83.00
2022-08-18T03:43:02.154Z,83.00
2022-08-18T03:43:56.989Z,83.33
2022-08-18T03:44:52.186Z,82.83
2022-08-18T03:45:47.457Z,82.67
2022-08-18T03:46:42.770Z,82.18
2022-08-18T03:47:37.972Z,82.18
2022-08-18T03:48:33.141Z,82.18
2022-08-18T03:49:28.427Z,82.34
2022-08-18T03:50:23.567Z,83.75
2022-08-18T03:51:18.820Z,84.17
2022-08-18T03:52:14.070Z,83.83
2022-08-18T03:53:09.337Z,84.51
2022-08-18T03:54:04.356Z,84.17
2022-08-18T03:54:59.382Z,84.42
2022-08-18T03:55:54.487Z,84.17
2022-08-18T03:56:52.658Z,84.17
2022-08-18T03:57:47.719Z,84.34
2022-08-18T03:58:42.924Z,84.17
2022-08-18T03:59:38.017Z,83.58
2022-08-18T04:00:33.109Z,83.33
2022-08-18T04:01:28.353Z,83.83
2022-08-18T04:02:23.591Z,84.08
2022-08-18T04:03:18.484Z,84.68
2022-08-18T04:04:13.603Z,85.11
2022-08-18T04:05:08.657Z,86.08
2022-08-18T04:06:03.740Z,86.35
2022-08-18T04:06:58.904Z,85.99
2022-08-18T04:07:53.825Z,85.99
2022-08-18T04:08:48.884Z,86.79
2022-08-18T04:09:43.995Z,86.43
2022-08-18T04:10:39.085Z,87.07
2022-08-18T04:11:36.586Z,87.80
2022-08-18T04:12:29.265Z,87.99
2022-08-18T04:13:24.362Z,87.61
2022-08-18T04:14:19.473Z,87.16
2022-08-18T04:15:14.488Z,87.43
2022-08-18T04:16:09.522Z,87.52
2022-08-18T04:17:04.545Z,87.16
2022-08-18T04:18:03.828Z,84.94
2022-08-18T04:18:54.651Z,84.00
2022-08-18T04:19:49.691Z,84.08
2022-08-18T04:20:59.483Z,83.33
2022-08-18T04:21:40.834Z,84.00
2022-08-18T04:22:35.090Z,84.08
2022-08-18T04:23:30.412Z,84.08
2022-08-18T04:24:28.226Z,84.17
2022-08-18T04:25:21.030Z,83.75
2022-08-18T04:26:19.337Z,84.25
2022-08-18T04:27:11.901Z,84.42
2022-08-18T04:28:07.107Z,84.77
2022-08-18T04:29:02.430Z,83.49
2022-08-18T04:29:57.784Z,83.41
2022-08-18T04:30:53.107Z,84.08
2022-08-18T04:31:48.460Z,83.58
2022-08-18T04:32:43.830Z,83.24
2022-08-18T04:33:39.166Z,83.49
2022-08-18T04:34:34.627Z,83.66
2022-08-18T04:35:29.837Z,83.66
2022-08-18T04:36:25.184Z,83.16
2022-08-18T04:37:20.537Z,82.67
2022-08-18T04:38:15.865Z,82.58
2022-08-18T04:39:11.196Z,83.00
2022-08-18T04:40:06.617Z,83.16
2022-08-18T04:41:01.979Z,83.33
2022-08-18T04:41:57.364Z,83.33
2022-08-18T04:42:52.804Z,83.58
2022-08-18T04:43:48.166Z,83.66
2022-08-18T04:44:43.687Z,83.66
2022-08-18T04:45:38.973Z,83.58
2022-08-18T04:46:34.358Z,82.50
2022-08-18T04:47:29.798Z,81.62
2022-08-18T04:48:25.173Z,81.46
2022-08-18T04:49:20.562Z,81.14
2022-08-18T04:50:15.959Z,81.86
2022-08-18T04:51:11.303Z,82.91
2022-08-18T04:52:37.357Z,83.83
2022-08-18T04:53:07.404Z,83.83
2022-08-18T04:54:01.753Z,83.58
2022-08-18T04:54:57.172Z,84.17
2022-08-18T04:55:52.644Z,84.25
2022-08-18T04:56:48.153Z,83.66
2022-08-18T04:57:43.200Z,82.42
2022-08-18T04:58:38.304Z,81.06
2022-08-18T04:59:33.360Z,80.59
2022-08-18T05:00:28.382Z,77.74
2022-08-18T05:01:23.494Z,77.23
2022-08-18T05:02:18.523Z,77.09
2022-08-18T05:03:13.580Z,76.81
2022-08-18T05:04:08.608Z,75.01
2022-08-18T05:05:03.656Z,71.91
2022-08-18T05:05:58.702Z,73.30
2022-08-18T05:06:53.997Z,74.81
2022-08-18T05:07:49.431Z,76.04
2022-08-18T05:08:45.041Z,76.53
2022-08-18T05:09:41.265Z,77.23
2022-08-18T05:10:35.901Z,78.10
2022-08-18T05:11:31.390Z,78.76
2022-08-18T05:12:26.958Z,78.69
2022-08-18T05:13:22.447Z,78.32
2022-08-18T05:14:17.902Z,77.59
2022-08-18T05:15:13.305Z,77.52
2022-08-18T05:16:11.664Z,77.52
2022-08-18T05:17:04.397Z,77.09
2022-08-18T05:17:59.831Z,76.18
2022-08-18T05:18:55.591Z,76.11
2022-08-18T05:19:50.885Z,75.83
2022-08-18T05:20:46.293Z,76.39
2022-08-18T05:21:41.734Z,76.18
2022-08-18T05:22:36.778Z,75.49
2022-08-18T05:23:31.893Z,76.04
2022-08-18T05:24:30.798Z,76.39
2022-08-18T05:25:22.972Z,76.60
2022-08-18T05:26:17.072Z,77.23
2022-08-18T05:27:12.107Z,78.18
2022-08-18T05:28:07.123Z,78.10
2022-08-18T05:29:18.057Z,76.88
2022-08-18T05:29:58.215Z,75.35
2022-08-18T05:30:52.452Z,74.34
2022-08-18T05:31:48.820Z,74.88
2022-08-18T05:32:49.041Z,75.08
2022-08-18T05:33:40.626Z,75.56
2022-08-18T05:34:35.109Z,76.18
2022-08-18T05:35:30.669Z,77.02
2022-08-18T05:36:26.099Z,76.74
2022-08-18T05:37:21.580Z,76.60
2022-08-18T05:38:17.138Z,76.32
2022-08-18T05:39:12.568Z,76.74
2022-08-18T05:40:11.305Z,76.46
2022-08-18T05:41:03.412Z,76.67
2022-08-18T05:41:59.162Z,77.74
2022-08-18T05:42:54.490Z,78.32
2022-08-18T05:43:49.908Z,77.23
2022-08-18T05:44:45.390Z,77.02
2022-08-18T05:45:40.386Z,75.42
2022-08-18T05:46:35.437Z,75.01
2022-08-18T05:47:30.515Z,75.28
2022-08-18T05:48:25.533Z,75.15
2022-08-18T05:49:20.595Z,74.81
2022-08-18T05:50:15.646Z,75.56
2022-08-18T05:51:10.721Z,75.90
2022-08-18T05:52:05.761Z,76.04
2022-08-18T05:53:00.795Z,75.90
2022-08-18T05:53:55.796Z,75.28
2022-08-18T05:54:50.847Z,74.81
2022-08-18T05:55:47.896Z,74.48
2022-08-18T05:56:41.036Z,74.21
2022-08-18T05:57:36.093Z,74.41
2022-08-18T05:58:33.248Z,74.61
2022-08-18T05:59:26.173Z,75.49
2022-08-18T06:00:21.216Z,75.69
2022-08-18T06:02:40.133Z,68.71
2022-08-18T06:03:45.541Z,68.77
2022-08-18T06:04:31.630Z,70.63
2022-08-18T06:05:26.127Z,72.22
2022-08-18T06:06:21.567Z,72.41
2022-08-18T06:07:17.154Z,72.16
2022-08-18T06:08:12.469Z,71.66
2022-08-18T06:09:07.897Z,71.85
2022-08-18T06:10:03.350Z,72.35
2022-08-18T06:10:58.784Z,74.28
2022-08-18T06:11:54.184Z,75.08
2022-08-18T06:12:49.664Z,75.69
2022-08-18T06:13:45.222Z,76.53
2022-08-18T06:14:40.644Z,77.31
2022-08-18T06:15:36.114Z,77.45
2022-08-18T06:16:31.524Z,77.38
2022-08-18T06:17:27.082Z,77.52
2022-08-18T06:18:22.428Z,77.59
2022-08-18T06:19:17.833Z,77.02
2022-08-18T06:20:13.308Z,76.81
2022-08-18T06:21:08.750Z,75.76
2022-08-18T06:22:04.176Z,75.15
2022-08-18T06:22:59.626Z,75.42
2022-08-18T06:23:55.188Z,76.04
2022-08-18T06:24:50.617Z,75.83
2022-08-18T06:25:46.146Z,76.60
2022-08-18T06:26:41.718Z,77.16
2022-08-18T06:27:37.160Z,77.31
2022-08-18T06:28:32.680Z,77.02
2022-08-18T06:29:28.253Z,77.09
2022-08-18T06:30:23.685Z,78.03
2022-08-18T06:31:19.148Z,78.10
2022-08-18T06:32:14.572Z,77.38
2022-08-18T06:33:10.010Z,76.39
2022-08-18T06:34:05.475Z,75.49
2022-08-18T06:35:00.900Z,74.48
2022-08-18T06:35:56.465Z,74.01
2022-08-18T06:36:51.774Z,73.49
2022-08-18T06:37:47.207Z,70.69
2022-08-18T06:38:45.369Z,69.40
2022-08-18T06:39:38.179Z,69.40
2022-08-18T06:40:33.615Z,69.75
2022-08-18T06:41:40.853Z,69.92
2022-08-18T06:42:25.525Z,70.27
2022-08-18T06:43:19.904Z,70.33
2022-08-18T06:44:15.474Z,70.51
2022-08-18T06:45:10.901Z,70.87
2022-08-18T06:46:06.366Z,70.87
2022-08-18T06:47:01.770Z,70.93
2022-08-18T06:47:57.182Z,70.16
2022-08-18T06:48:52.711Z,67.71
2022-08-18T06:49:48.185Z,63.34
2022-08-18T06:50:43.761Z,57.65
2022-08-18T06:51:40.935Z,52.87
2022-08-18T06:52:34.564Z,48.44
2022-08-18T06:53:30.154Z,44.71
2022-08-18T06:54:25.623Z,42.44
2022-08-18T06:55:21.050Z,41.02
2022-08-18T06:56:26.351Z,40.15
2022-08-18T06:57:12.946Z,39.66
2022-08-18T06:58:07.445Z,39.29
2022-08-18T06:59:02.884Z,38.45
2022-08-18T06:59:58.329Z,37.86
2022-08-18T07:00:54.998Z,37.35
2022-08-18T07:01:49.307Z,37.35
2022-08-18T07:02:44.919Z,36.83
2022-08-18T07:03:41.429Z,36.38
2022-08-18T07:04:36.892Z,35.81
2022-08-18T07:05:32.488Z,36.38
2022-08-18T07:06:28.058Z,37.86
2022-08-18T07:07:23.387Z,38.38
2022-08-18T07:08:18.899Z,38.03
2022-08-18T07:09:14.274Z,38.00
2022-08-18T07:10:09.744Z,37.83
2022-08-18T07:11:05.174Z,38.14
2022-08-18T07:12:00.775Z,38.60
2022-08-18T07:12:56.115Z,39.36
2022-08-18T07:14:03.717Z,39.70
2022-08-18T07:14:48.030Z,39.96
2022-08-18T07:15:42.571Z,40.43
2022-08-18T07:17:43.707Z,41.22
2022-08-18T07:18:28.804Z,42.14
2022-08-18T07:19:22.835Z,43.10
2022-08-18T07:20:17.884Z,44.05
2022-08-18T07:21:12.973Z,45.74
2022-08-18T07:22:08.092Z,47.26
2022-08-18T07:23:08.363Z,48.31
2022-08-18T07:24:21.415Z,48.81
2022-08-18T07:24:54.312Z,49.95
2022-08-18T07:25:48.390Z,50.96
2022-08-18T07:26:45.053Z,51.59
2022-08-18T07:27:40.533Z,53.27
2022-08-18T07:28:36.010Z,54.52
2022-08-18T07:29:31.316Z,55.43
2022-08-18T07:30:26.829Z,55.80
2022-08-18T07:31:22.248Z,56.59
2022-08-18T07:32:20.981Z,57.97
2022-08-18T07:33:13.063Z,59.80
2022-08-18T07:34:08.545Z,60.40
2022-08-18T07:35:04.258Z,61.02
2022-08-18T07:35:59.677Z,61.43
2022-08-18T07:36:55.087Z,61.88
2022-08-18T07:37:50.706Z,62.21
2022-08-18T07:38:45.938Z,62.02
2022-08-18T07:39:44.115Z,62.35
2022-08-18T07:40:36.957Z,60.80
2022-08-18T07:41:31.081Z,60.62
2022-08-18T07:42:37.162Z,61.52
2022-08-18T07:43:22.201Z,62.53
2022-08-18T07:44:16.196Z,63.29
2022-08-18T07:45:11.256Z,63.53
2022-08-18T07:46:06.375Z,63.53
2022-08-18T07:47:01.418Z,64.07
2022-08-18T07:47:56.486Z,64.82
2022-08-18T07:48:52.312Z,64.51
2022-08-18T07:50:16.622Z,64.71
2022-08-18T07:50:58.590Z,64.66
2022-08-18T07:51:37.799Z,65.27
2022-08-18T07:52:44.082Z,65.02
2022-08-18T07:53:29.516Z,64.56
2022-08-18T07:54:48.218Z,64.36
2022-08-18T07:55:20.526Z,64.97
2022-08-18T07:56:14.885Z,64.42
2022-08-18T07:57:10.309Z,63.73
2022-08-18T07:58:05.872Z,63.97
2022-08-18T07:59:01.192Z,64.56
2022-08-18T07:59:56.592Z,65.84
2022-08-18T08:01:00.147Z,66.26
2022-08-18T08:01:48.548Z,66.79
2022-08-18T08:02:42.887Z,67.49
2022-08-18T08:03:38.292Z,68.09
2022-08-18T08:04:33.744Z,67.82
2022-08-18T08:05:29.336Z,68.37
2022-08-18T08:06:24.344Z,67.54
2022-08-18T08:07:26.515Z,66.84
2022-08-18T08:08:15.421Z,66.41
2022-08-18T08:09:09.498Z,67.93
2022-08-18T08:10:04.653Z,69.69
2022-08-18T08:10:59.890Z,70.04
2022-08-18T08:11:54.980Z,69.46
2022-08-18T08:12:50.056Z,67.11
2022-08-18T08:13:55.361Z,64.92
2022-08-18T08:14:41.250Z,64.22
2022-08-18T08:15:36.885Z,65.12
2022-08-18T08:16:32.026Z,66.31
2022-08-18T08:17:26.976Z,67.49
2022-08-18T08:18:22.117Z,68.04
2022-08-18T08:19:17.199Z,68.37
2022-08-18T08:20:12.337Z,70.87
2022-08-18T08:21:07.440Z,72.72
2022-08-18T08:22:02.946Z,69.22
2022-08-18T08:22:58.350Z,65.02
2022-08-18T08:23:53.752Z,64.86
2022-08-18T08:24:49.186Z,67.32
2022-08-18T08:25:47.202Z,70.21
2022-08-18T08:26:40.173Z,72.98
2022-08-18T08:27:35.594Z,77.23
2022-08-18T08:28:31.024Z,78.76
2022-08-18T08:29:26.411Z,84.60
2022-08-18T08:30:21.927Z,88.54
2022-08-18T08:32:13.459Z,87.43
2022-08-18T08:33:07.545Z,83.49
2022-08-18T08:34:05.852Z,81.46
2022-08-18T08:34:57.635Z,83.00
2022-08-18T08:35:52.678Z,83.91
2022-08-18T08:36:47.653Z,83.24
2022-08-18T08:37:42.705Z,85.37
2022-08-18T08:38:43.058Z,86.89
2022-08-18T08:39:35.539Z,91.16
2022-08-18T08:40:29.551Z,95.74
2022-08-18T08:41:24.619Z,97.76
2022-08-18T08:42:30.570Z,100.71
2022-08-18T08:43:16.834Z,103.39
2022-08-18T08:44:11.328Z,103.01
2022-08-18T08:45:06.711Z,103.26
2022-08-18T08:46:02.374Z,110.51
2022-08-18T08:46:57.940Z,114.93
2022-08-18T08:47:53.543Z,118.18
2022-08-18T08:48:49.065Z,133.82
2022-08-18T08:49:44.601Z,149.13
2022-08-18T08:50:40.161Z,150.61
2022-08-18T08:51:35.582Z,148.07
2022-08-18T08:52:30.992Z,139.88
2022-08-18T08:53:26.531Z,127.19
2022-08-18T08:54:22.108Z,129.76
2022-08-18T08:55:17.199Z,131.81
2022-08-18T08:56:12.356Z,114.85
2022-08-18T08:57:08.927Z,108.29
2022-08-18T08:58:02.447Z,110.37
2022-08-18T08:58:57.680Z,110.37
2022-08-18T08:59:52.678Z,109.21
2022-08-18T09:00:47.669Z,106.77
2022-08-18T09:01:43.150Z,106.02
2022-08-18T09:02:47.956Z,111.77
2022-08-18T09:03:34.272Z,120.84
2022-08-18T09:04:28.350Z,121.10
2022-08-18T09:05:24.130Z,122.25
2022-08-18T09:06:19.792Z,125.47
2022-08-18T09:07:15.224Z,139.29
2022-08-18T09:08:10.732Z,145.11
2022-08-18T09:09:06.126Z,148.07
2022-08-18T09:10:01.653Z,144.61
2022-08-18T09:10:57.032Z,139.64
2022-08-18T09:11:52.565Z,138.60
2022-08-18T09:12:48.080Z,131.71
2022-08-18T09:13:44.636Z,140.00
2022-08-18T09:14:40.135Z,145.24
2022-08-18T09:15:35.637Z,140.59
2022-08-18T09:16:31.229Z,134.04
2022-08-18T09:17:33.996Z,131.81
2022-08-18T09:18:22.575Z,131.81
2022-08-18T09:19:16.650Z,129.86
2022-08-18T09:20:11.771Z,129.26
2022-08-18T09:21:06.764Z,133.50
2022-08-18T09:22:01.767Z,135.67
2022-08-18T09:22:56.915Z,138.60
2022-08-18T09:23:51.911Z,140.59
2022-08-18T09:24:47.033Z,137.01
2022-08-18T09:25:42.153Z,131.92
2022-08-18T09:26:39.197Z,131.92
2022-08-18T09:27:43.567Z,123.06
2022-08-18T09:28:29.134Z,96.79
2022-08-18T09:29:23.607Z,86.26
2022-08-18T09:30:18.943Z,75.35
2022-08-18T09:31:14.531Z,64.36
2022-08-18T09:32:11.743Z,63.19
2022-08-18T09:33:04.638Z,63.58
2022-08-18T09:34:06.719Z,64.12
2022-08-18T09:34:55.710Z,68.77
2022-08-18T09:36:45.762Z,83.75
2022-08-18T09:37:39.877Z,84.34
2022-08-18T09:38:35.021Z,89.49
2022-08-18T09:39:30.696Z,94.35
2022-08-18T09:41:22.548Z,94.28
2022-08-18T09:42:16.950Z,97.19
2022-08-18T09:43:12.442Z,106.70
2022-08-18T09:44:07.798Z,97.30
2022-08-18T09:45:02.847Z,104.95
2022-08-18T09:45:57.866Z,118.43
2022-08-18T09:46:52.863Z,123.70
2022-08-18T09:47:49.577Z,123.61
2022-08-18T09:48:44.678Z,126.61
2022-08-18T09:49:39.769Z,123.61
2022-08-18T09:50:34.905Z,118.35
2022-08-18T09:51:30.448Z,115.48
2022-08-18T09:52:25.881Z,112.60
2022-08-18T09:53:21.413Z,111.55
2022-08-18T09:54:21.322Z,123.61
2022-08-18T09:55:12.635Z,122.25
2022-08-18T09:56:08.174Z,125.09
2022-08-18T09:57:03.700Z,115.25
2022-08-18T09:57:59.239Z,104.62
2022-08-18T09:58:54.708Z,110.08
2022-08-18T09:59:50.360Z,122.88
2022-08-18T10:00:45.938Z,133.39
2022-08-18T10:01:41.056Z,133.29
2022-08-18T10:02:36.893Z,131.09
2022-08-18T10:03:31.742Z,128.56
2022-08-18T10:04:29.206Z,128.37
2022-08-18T10:05:21.241Z,111.25
2022-08-18T10:06:16.198Z,88.92
2022-08-18T10:07:11.277Z,78.03
2022-08-18T10:08:06.267Z,88.83
2022-08-18T10:09:01.283Z,94.65
2022-08-18T10:09:56.386Z,99.99
2022-08-18T10:10:59.486Z,91.96
2022-08-18T10:11:50.928Z,84.85
2022-08-18T10:12:44.011Z,92.47
2022-08-18T10:13:40.997Z,101.63
2022-08-18T10:14:36.006Z,99.27
2022-08-18T10:15:33.739Z,96.46
2022-08-18T10:16:28.069Z,94.57
2022-08-18T10:17:23.509Z,95.11
2022-08-18T10:18:17.153Z,102.06
2022-08-18T10:19:12.587Z,114.22
2022-08-18T10:20:08.953Z,108.50
2022-08-18T10:21:05.468Z,106.56
2022-08-18T10:21:59.911Z,104.49
2022-08-18T10:22:55.303Z,113.37
2022-08-18T10:24:02.708Z,120.23
2022-08-18T10:24:46.848Z,128.76
2022-08-18T10:25:41.066Z,115.25
2022-08-18T10:26:35.974Z,91.36
2022-08-18T10:27:31.042Z,69.86
2022-08-18T10:28:26.092Z,61.20
2022-08-18T10:29:21.204Z,64.56
2022-08-18T10:30:16.161Z,71.72
2022-08-18T10:31:11.177Z,79.36
2022-08-18T10:32:06.260Z,85.81
2022-08-18T10:33:10.920Z,87.61
2022-08-18T10:33:59.530Z,87.61
2022-08-18T10:34:53.636Z,86.35
2022-08-18T10:35:48.775Z,88.73
2022-08-18T10:36:43.743Z,87.61
2022-08-18T10:37:38.791Z,87.34
2022-08-18T10:38:33.900Z,96.13
2022-08-18T10:39:29.467Z,101.94
2022-08-18T10:40:26.457Z,100.59
2022-08-18T10:41:20.443Z,97.25
2022-08-18T10:42:15.909Z,92.57
2022-08-18T10:43:45.369Z,89.30
2022-08-18T10:44:27.815Z,91.26
2022-08-18T10:45:06.605Z,97.87
2022-08-18T10:46:24.660Z,106.77
2022-08-18T10:46:54.170Z,115.64
2022-08-18T10:47:49.059Z,121.72
2022-08-18T10:48:44.549Z,128.56
2022-08-18T10:49:46.713Z,134.79
2022-08-18T10:50:36.092Z,161.70
2022-08-18T10:51:30.191Z,181.39
2022-08-18T10:52:26.314Z,167.38
2022-08-18T10:54:18.367Z,158.32
2022-08-18T10:55:10.513Z,167.88
2022-08-18T10:56:05.531Z,180.80
2022-08-18T10:57:02.551Z,217.35
2022-08-18T10:57:58.076Z,234.43
2022-08-18T10:58:53.600Z,231.12
2022-08-18T10:59:54.632Z,218.65
2022-08-18T11:00:45.678Z,189.04
2022-08-18T11:01:40.217Z,176.96
2022-08-18T11:02:37.025Z,173.29
2022-08-18T11:03:52.170Z,177.15
2022-08-18T11:04:34.018Z,171.68
2022-08-18T11:05:23.489Z,156.99
2022-08-18T11:06:21.690Z,160.30
2022-08-18T11:07:13.463Z,164.41
2022-08-18T11:09:05.423Z,171.51
2022-08-18T11:10:28.511Z,171.15
2022-08-18T11:11:27.456Z,169.93
2022-08-18T11:12:46.239Z,171.15
2022-08-18T11:13:40.330Z,174.92
2022-08-18T11:14:35.383Z,178.48
2022-08-18T11:15:35.827Z,193.73
2022-08-18T11:16:26.520Z,206.67
2022-08-18T11:17:20.556Z,219.23
2022-08-18T11:18:15.623Z,250.73
2022-08-18T11:19:10.753Z,254.62
2022-08-18T11:20:07.953Z,258.02
2022-08-18T11:21:03.486Z,249.21
2022-08-18T11:21:59.873Z,235.94
2022-08-18T11:22:55.085Z,223.57
2022-08-18T11:23:50.013Z,241.15
2022-08-18T11:24:46.366Z,247.70
2022-08-18T11:25:40.473Z,245.11
2022-08-18T11:26:35.610Z,236.28
2022-08-18T11:27:30.673Z,230.80
2022-08-18T11:28:30.154Z,243.29
2022-08-18T11:29:21.822Z,244.56
2022-08-18T11:30:17.698Z,244.74
2022-08-18T11:31:10.930Z,263.83
2022-08-18T11:32:05.937Z,298.93
2022-08-18T11:33:01.349Z,317.74
2022-08-18T11:33:56.182Z,324.98
2022-08-18T11:34:51.215Z,320.85
2022-08-18T11:35:46.935Z,348.82
2022-08-18T11:36:49.959Z,344.79
2022-08-18T11:38:34.290Z,349.93
2022-08-18T11:39:37.718Z,331.21
2022-08-18T11:41:20.189Z,318.36
2022-08-18T11:42:15.820Z,315.91
2022-08-18T11:43:12.117Z,349.19
2022-08-18T11:44:06.545Z,374.28
2022-08-18T11:45:02.063Z,412.13
2022-08-18T11:45:57.660Z,424.46
2022-08-18T11:46:53.148Z,387.92
2022-08-18T11:47:48.823Z,367.99
2022-08-18T11:48:51.829Z,340.85
2022-08-18T11:49:40.736Z,315.30
2022-08-18T11:50:35.309Z,309.94
2022-08-18T11:51:30.793Z,317.43
2022-08-18T11:53:23.999Z,325.95
2022-08-18T11:54:17.542Z,291.23
2022-08-18T11:56:13.551Z,284.66
2022-08-18T11:57:04.168Z,289.18
2022-08-18T11:58:00.710Z,276.04
2022-08-18T11:58:55.321Z,258.23
2022-08-18T11:59:55.127Z,254.23